Time;durP1;ratioP1;P1;durP2;ratioP2;P2;SDS_P1;SDS_P2;PMS_P1;PMS_P2;Temp;Humidity;BMP_temperature;BMP_pressure;BME280_temperature;BME280_humidity;BME280_pressure;Samples;Min_cycle;Max_cycle;Signal;HPM_P1;HPM_P2
2023/09/12 00:02:00;;;;;;;10.85;7.38;;;;;;;;;;4991272;28;20209;-64
2023/09/12 00:04:29;;;;;;;11.30;6.85;;;;;;;;;;4989469;28;20221;-64
2023/09/12 00:06:56;;;;;;;10.57;7.00;;;;;;;;;;4990047;28;20233;-63
2023/09/12 00:09:23;;;;;;;9.57;7.00;;;;;;;;;;4990780;28;20234;-63
2023/09/12 00:11:50;;;;;;;10.20;6.70;;;;;;;;;;4990540;28;20236;-63
2023/09/12 00:14:17;;;;;;;11.32;6.90;;;;;;;;;;4990900;28;20671;-63
2023/09/12 00:16:45;;;;;;;11.82;6.60;;;;;;;;;;4990836;28;20202;-64
2023/09/12 00:19:12;;;;;;;8.32;6.82;;;;;;;;;;4991258;28;20212;-64
2023/09/12 00:21:41;;;;;;;10.60;6.68;;;;;;;;;;4990269;28;20210;-64
2023/09/12 00:24:08;;;;;;;8.73;7.13;;;;;;;;;;4990994;28;20588;-62
2023/09/12 00:26:35;;;;;;;20.80;8.27;;;;;;;;;;4988594;28;20207;-63
2023/09/12 00:29:02;;;;;;;13.93;7.32;;;;;;;;;;4990919;28;20241;-64
2023/09/12 00:31:29;;;;;;;12.10;7.35;;;;;;;;;;4989955;28;20213;-63
2023/09/12 00:33:56;;;;;;;12.40;6.90;;;;;;;;;;4990334;28;20202;-63
2023/09/12 00:36:23;;;;;;;12.35;7.10;;;;;;;;;;4989960;28;20233;-63
2023/09/12 00:38:51;;;;;;;10.73;6.75;;;;;;;;;;4989583;28;20220;-63
2023/09/12 00:41:17;;;;;;;12.30;6.82;;;;;;;;;;4990653;28;20206;-63
2023/09/12 00:43:44;;;;;;;8.98;6.53;;;;;;;;;;4990666;28;20206;-63
2023/09/12 00:46:11;;;;;;;14.18;7.28;;;;;;;;;;4990058;28;20667;-63
2023/09/12 00:48:39;;;;;;;12.98;6.70;;;;;;;;;;4990378;28;20232;-63
2023/09/12 00:51:07;;;;;;;8.95;7.50;;;;;;;;;;4987127;28;20579;-65
2023/09/12 00:53:34;;;;;;;13.50;6.82;;;;;;;;;;4987802;28;20194;-63
2023/09/12 00:56:03;;;;;;;12.07;6.88;;;;;;;;;;4986871;28;20244;-63
2023/09/12 00:58:30;;;;;;;13.38;7.05;;;;;;;;;;4985067;28;20202;-63
2023/09/12 01:00:58;;;;;;;11.82;7.00;;;;;;;;;;4986164;28;20713;-62
2023/09/12 01:03:25;;;;;;;17.25;7.22;;;;;;;;;;4985430;28;20272;-63
2023/09/12 01:05:53;;;;;;;13.48;7.25;;;;;;;;;;4985947;28;20278;-62
2023/09/12 01:08:20;;;;;;;12.80;7.60;;;;;;;;;;4988816;28;20233;-63
2023/09/12 01:10:48;;;;;;;13.57;7.03;;;;;;;;;;4986804;28;20248;-63
2023/09/12 01:13:17;;;;;;;13.13;8.00;;;;;;;;;;4989249;28;20566;-62
2023/09/12 01:15:44;;;;;;;10.65;7.07;;;;;;;;;;4980557;28;20206;-62
2023/09/12 01:18:11;;;;;;;8.52;6.78;;;;;;;;;;4989505;28;20197;-63
2023/09/12 01:20:40;;;;;;;13.07;7.60;;;;;;;;;;4989487;28;20225;-65
2023/09/12 01:23:17;;;;;;;12.13;6.75;;;;;;;;;;4988881;28;20205;-64
2023/09/12 01:25:49;;;;;;;8.63;6.25;;;;;;;;;;4984841;28;20759;-64
2023/09/12 01:28:18;;;;;;;10.65;7.05;;;;;;;;;;4988901;28;20660;-65
2023/09/12 01:30:47;;;;;;;8.10;6.47;;;;;;;;;;4989223;28;20232;-65
2023/09/12 01:33:14;;;;;;;11.65;7.00;;;;;;;;;;4989111;28;20774;-64
2023/09/12 01:35:41;;;;;;;15.13;7.78;;;;;;;;;;4989507;28;20209;-64
2023/09/12 01:38:08;;;;;;;12.60;6.82;;;;;;;;;;4989832;28;20221;-64
2023/09/12 01:40:36;;;;;;;10.75;7.65;;;;;;;;;;4988301;28;20210;-64
2023/09/12 01:43:06;;;;;;;11.20;6.50;;;;;;;;;;4989815;28;20696;-65
2023/09/12 01:45:34;;;;;;;13.18;7.40;;;;;;;;;;4981116;28;20226;-65
2023/09/12 01:48:02;;;;;;;16.50;7.07;;;;;;;;;;4988083;28;20269;-64
2023/09/12 01:50:29;;;;;;;14.25;7.13;;;;;;;;;;4989373;28;20216;-64
2023/09/12 01:52:57;;;;;;;8.60;6.63;;;;;;;;;;4989623;28;20587;-64
2023/09/12 01:55:26;;;;;;;10.30;7.15;;;;;;;;;;4988735;28;20268;-64
2023/09/12 01:57:53;;;;;;;7.82;6.53;;;;;;;;;;4989637;28;20687;-64
2023/09/12 02:00:20;;;;;;;8.85;7.13;;;;;;;;;;4989346;28;20221;-64
2023/09/12 02:02:49;;;;;;;11.95;6.78;;;;;;;;;;4976353;28;20217;-65
2023/09/12 02:05:18;;;;;;;9.32;6.70;;;;;;;;;;4976183;28;20216;-65
2023/09/12 02:07:46;;;;;;;11.50;7.05;;;;;;;;;;4986499;28;20241;-65
2023/09/12 02:10:13;;;;;;;10.23;6.95;;;;;;;;;;4986305;28;20236;-64
2023/09/12 02:12:40;;;;;;;8.50;6.55;;;;;;;;;;4988583;28;20554;-63
2023/09/12 02:15:07;;;;;;;14.60;7.50;;;;;;;;;;4974601;28;20221;-65
2023/09/12 02:17:34;;;;;;;9.45;8.20;;;;;;;;;;4989421;28;20213;-64
2023/09/12 02:20:04;;;;;;;17.67;8.02;;;;;;;;;;4989329;28;20743;-64
2023/09/12 02:22:31;;;;;;;16.90;7.50;;;;;;;;;;4989127;28;20217;-64
2023/09/12 02:24:58;;;;;;;14.35;8.35;;;;;;;;;;4983772;28;20592;-64
2023/09/12 02:27:25;;;;;;;11.00;8.48;;;;;;;;;;4981975;28;20631;-64
2023/09/12 02:29:53;;;;;;;10.15;8.30;;;;;;;;;;4989151;28;20232;-65
2023/09/12 02:32:20;;;;;;;15.02;8.25;;;;;;;;;;4988870;28;20667;-65
2023/09/12 02:34:47;;;;;;;9.48;8.10;;;;;;;;;;4988712;28;20213;-64
2023/09/12 02:37:15;;;;;;;9.65;7.88;;;;;;;;;;4989382;28;20571;-64
2023/09/12 02:39:42;;;;;;;9.77;7.25;;;;;;;;;;4988923;28;20257;-64
2023/09/12 02:42:09;;;;;;;10.20;8.05;;;;;;;;;;4988818;28;20201;-64
2023/09/12 02:44:36;;;;;;;11.50;7.40;;;;;;;;;;4988778;28;20218;-64
2023/09/12 02:47:04;;;;;;;17.45;7.95;;;;;;;;;;4989156;28;20687;-65
2023/09/12 02:49:31;;;;;;;11.65;7.93;;;;;;;;;;4988470;28;20229;-64
2023/09/12 02:51:58;;;;;;;11.70;7.75;;;;;;;;;;4984932;28;20209;-64
2023/09/12 02:54:27;;;;;;;16.60;8.75;;;;;;;;;;4985488;28;20590;-64
2023/09/12 02:56:54;;;;;;;12.23;7.78;;;;;;;;;;4986479;28;20217;-65
2023/09/12 02:59:21;;;;;;;10.88;7.90;;;;;;;;;;4989062;28;20213;-64
2023/09/12 03:01:48;;;;;;;12.88;8.40;;;;;;;;;;4988580;28;20209;-64
2023/09/12 03:04:15;;;;;;;11.68;7.60;;;;;;;;;;4974935;28;20209;-64
2023/09/12 03:06:42;;;;;;;19.13;8.80;;;;;;;;;;4988404;28;20244;-64
2023/09/12 03:09:11;;;;;;;10.73;8.40;;;;;;;;;;4988360;28;20237;-64
2023/09/12 03:11:39;;;;;;;14.20;7.32;;;;;;;;;;4988485;28;20279;-64
2023/09/12 03:14:06;;;;;;;10.98;7.40;;;;;;;;;;4987915;28;20210;-64
2023/09/12 03:16:33;;;;;;;14.45;7.97;;;;;;;;;;4988700;28;20206;-64
2023/09/12 03:19:01;;;;;;;11.10;7.75;;;;;;;;;;4980948;28;20205;-65
2023/09/12 03:21:28;;;;;;;10.27;7.75;;;;;;;;;;4988528;28;20206;-64
2023/09/12 03:23:55;;;;;;;16.58;8.07;;;;;;;;;;4991380;28;20213;-65
2023/09/12 03:26:22;;;;;;;11.38;7.85;;;;;;;;;;4992621;28;20671;-64
2023/09/12 03:28:51;;;;;;;12.70;8.27;;;;;;;;;;4991400;28;20245;-64
2023/09/12 03:31:18;;;;;;;13.93;7.70;;;;;;;;;;4991726;28;20214;-65
2023/09/12 03:33:49;;;;;;;12.77;7.25;;;;;;;;;;4992291;28;20626;-64
2023/09/12 03:36:16;;;;;;;13.93;7.57;;;;;;;;;;4990074;28;20210;-65
2023/09/12 03:38:44;;;;;;;20.95;8.48;;;;;;;;;;4986505;28;20209;-65
2023/09/12 03:41:11;;;;;;;14.02;7.80;;;;;;;;;;4992422;28;20276;-65
2023/09/12 03:43:38;;;;;;;10.55;8.02;;;;;;;;;;4992100;28;20237;-65
2023/09/12 03:46:06;;;;;;;16.77;8.25;;;;;;;;;;4991016;28;20205;-64
2023/09/12 03:48:36;;;;;;;13.00;7.55;;;;;;;;;;4991514;28;20224;-64
2023/09/12 03:51:03;;;;;;;12.85;7.97;;;;;;;;;;4992238;28;20698;-64
2023/09/12 03:53:30;;;;;;;17.92;8.02;;;;;;;;;;4990735;28;20217;-65
2023/09/12 03:55:58;;;;;;;16.63;7.85;;;;;;;;;;4991704;28;20209;-65
2023/09/12 03:58:25;;;;;;;13.52;8.30;;;;;;;;;;4991640;28;20244;-65
2023/09/12 04:00:52;;;;;;;14.45;8.35;;;;;;;;;;4991889;28;20217;-65
2023/09/12 04:03:22;;;;;;;11.43;7.15;;;;;;;;;;4991434;28;20683;-65
2023/09/12 04:05:49;;;;;;;11.65;6.47;;;;;;;;;;4988415;28;20220;-64
2023/09/12 04:08:16;;;;;;;9.02;7.07;;;;;;;;;;4990839;28;20241;-64
2023/09/12 04:10:43;;;;;;;10.45;7.70;;;;;;;;;;4991945;28;20265;-64
2023/09/12 04:13:10;;;;;;;11.45;7.63;;;;;;;;;;4991105;28;20550;-64
2023/09/12 04:15:37;;;;;;;13.23;8.23;;;;;;;;;;4991021;28;20584;-64
2023/09/12 04:18:04;;;;;;;10.18;7.50;;;;;;;;;;4991431;28;20202;-65
2023/09/12 04:20:32;;;;;;;12.07;7.65;;;;;;;;;;4991788;28;20292;-64
2023/09/12 04:23:02;;;;;;;11.43;7.50;;;;;;;;;;4991144;28;20212;-64
2023/09/12 04:25:29;;;;;;;8.32;7.60;;;;;;;;;;4990012;28;20201;-65
2023/09/12 04:27:56;;;;;;;12.77;7.60;;;;;;;;;;4982533;28;20296;-64
2023/09/12 04:30:23;;;;;;;13.82;8.38;;;;;;;;;;4986083;28;20229;-64
2023/09/12 04:32:50;;;;;;;12.68;6.78;;;;;;;;;;4986782;28;20209;-65
2023/09/12 04:35:19;;;;;;;10.82;7.68;;;;;;;;;;4987968;28;20681;-64
2023/09/12 04:37:47;;;;;;;10.85;7.82;;;;;;;;;;4988168;28;20202;-64
2023/09/12 04:40:14;;;;;;;13.73;7.35;;;;;;;;;;4985927;28;20194;-65
2023/09/12 04:42:41;;;;;;;14.88;7.90;;;;;;;;;;4988037;28;20232;-64
2023/09/12 04:45:08;;;;;;;14.00;7.88;;;;;;;;;;4985795;28;20212;-64
2023/09/12 04:47:35;;;;;;;10.18;7.50;;;;;;;;;;4988224;28;20210;-64
2023/09/12 04:50:03;;;;;;;14.48;8.15;;;;;;;;;;4986103;28;20225;-64
2023/09/12 04:52:30;;;;;;;12.45;7.68;;;;;;;;;;4985195;28;20676;-64
2023/09/12 04:54:58;;;;;;;14.85;7.75;;;;;;;;;;4987631;28;20217;-64
2023/09/12 04:57:25;;;;;;;16.23;8.13;;;;;;;;;;4984181;28;20217;-64
2023/09/12 04:59:53;;;;;;;12.98;8.18;;;;;;;;;;4981750;28;20217;-64
2023/09/12 05:02:20;;;;;;;12.75;8.68;;;;;;;;;;4982599;28;20209;-64
2023/09/12 05:04:47;;;;;;;15.23;8.32;;;;;;;;;;4982109;28;20581;-64
2023/09/12 05:07:14;;;;;;;10.98;8.13;;;;;;;;;;4970917;28;20230;-64
2023/09/12 05:09:41;;;;;;;20.80;8.52;;;;;;;;;;4983421;28;20241;-64
2023/09/12 05:12:10;;;;;;;15.35;8.65;;;;;;;;;;4981898;28;20306;-64
2023/09/12 05:14:37;;;;;;;16.00;8.75;;;;;;;;;;4987012;28;20210;-64
2023/09/12 05:17:04;;;;;;;13.55;8.77;;;;;;;;;;4983624;28;20202;-64
2023/09/12 05:19:32;;;;;;;16.38;8.98;;;;;;;;;;4986201;28;20683;-64
2023/09/12 05:21:59;;;;;;;13.95;8.65;;;;;;;;;;4985750;28;20209;-65
2023/09/12 05:24:26;;;;;;;13.05;8.32;;;;;;;;;;4986242;28;20209;-64
2023/09/12 05:26:53;;;;;;;14.38;8.02;;;;;;;;;;4987288;28;20210;-64
2023/09/12 05:29:21;;;;;;;17.65;8.18;;;;;;;;;;4984449;28;20229;-64
2023/09/12 05:31:48;;;;;;;9.18;7.65;;;;;;;;;;4987624;28;20229;-64
2023/09/12 05:34:15;;;;;;;12.55;8.30;;;;;;;;;;4984487;28;20692;-64
2023/09/12 05:36:42;;;;;;;15.98;8.63;;;;;;;;;;4987183;28;20210;-65
2023/09/12 05:39:10;;;;;;;9.50;6.68;;;;;;;;;;4984539;28;20226;-64
2023/09/12 05:41:37;;;;;;;11.82;7.28;;;;;;;;;;4983322;28;20287;-64
2023/09/12 05:44:04;;;;;;;15.68;7.80;;;;;;;;;;4982486;28;20267;-65
2023/09/12 05:46:32;;;;;;;13.18;7.72;;;;;;;;;;4969529;28;20214;-63
2023/09/12 05:48:59;;;;;;;15.38;7.95;;;;;;;;;;4973869;28;20239;-65
2023/09/12 05:51:26;;;;;;;9.07;7.32;;;;;;;;;;4981667;28;20728;-64
2023/09/12 05:53:53;;;;;;;13.48;7.57;;;;;;;;;;4981019;28;20209;-64
2023/09/12 05:56:21;;;;;;;15.10;8.20;;;;;;;;;;4975622;28;20210;-65
2023/09/12 05:58:50;;;;;;;13.32;7.90;;;;;;;;;;4981493;28;20206;-64
2023/09/12 06:01:17;;;;;;;10.57;7.70;;;;;;;;;;4976945;28;20237;-64
2023/09/12 06:03:45;;;;;;;14.63;7.60;;;;;;;;;;4977337;28;20207;-64
2023/09/12 06:06:12;;;;;;;12.52;7.15;;;;;;;;;;4981594;28;20225;-63
2023/09/12 06:08:39;;;;;;;10.23;7.32;;;;;;;;;;4982841;28;20243;-63
2023/09/12 06:11:07;;;;;;;13.45;7.35;;;;;;;;;;4976005;28;20234;-63
2023/09/12 06:13:37;;;;;;;10.68;7.03;;;;;;;;;;4980592;28;20202;-63
2023/09/12 06:16:04;;;;;;;11.18;6.93;;;;;;;;;;4985738;28;20202;-62
2023/09/12 06:18:31;;;;;;;11.93;8.25;;;;;;;;;;4981123;28;20636;-62
2023/09/12 06:21:01;;;;;;;9.48;6.85;;;;;;;;;;4981835;28;20198;-63
2023/09/12 06:23:29;;;;;;;17.42;6.93;;;;;;;;;;4976455;28;20213;-63
2023/09/12 06:25:56;;;;;;;11.35;7.78;;;;;;;;;;4985436;28;20586;-63
2023/09/12 06:28:27;;;;;;;10.90;7.13;;;;;;;;;;4984679;28;20217;-63
2023/09/12 06:30:54;;;;;;;9.85;6.72;;;;;;;;;;4985489;28;20637;-63
2023/09/12 06:33:21;;;;;;;14.38;6.72;;;;;;;;;;4984592;28;20236;-63
2023/09/12 06:35:50;;;;;;;11.98;7.03;;;;;;;;;;4985781;28;20213;-63
2023/09/12 06:38:18;;;;;;;13.38;7.18;;;;;;;;;;4984494;28;20210;-63
2023/09/12 06:40:46;;;;;;;12.45;7.32;;;;;;;;;;4984261;28;20205;-63
2023/09/12 06:43:13;;;;;;;10.73;7.03;;;;;;;;;;4978580;28;20762;-64
2023/09/12 06:45:41;;;;;;;11.73;6.85;;;;;;;;;;4977875;28;20209;-64
2023/09/12 06:48:09;;;;;;;10.02;6.85;;;;;;;;;;4980743;28;20210;-64
2023/09/12 06:50:37;;;;;;;11.35;6.60;;;;;;;;;;4982509;28;20225;-64
2023/09/12 06:53:06;;;;;;;13.95;6.45;;;;;;;;;;4982953;28;20213;-64
2023/09/12 06:55:34;;;;;;;10.43;6.00;;;;;;;;;;4988019;28;20201;-63
2023/09/12 06:58:01;;;;;;;10.52;6.15;;;;;;;;;;4988672;28;20225;-64
2023/09/12 07:00:28;;;;;;;7.30;6.28;;;;;;;;;;4989692;28;20236;-64
2023/09/12 07:02:55;;;;;;;13.90;6.60;;;;;;;;;;4989147;28;20209;-63
2023/09/12 07:05:22;;;;;;;10.93;6.18;;;;;;;;;;4988455;28;20209;-64
2023/09/12 07:07:49;;;;;;;16.35;7.47;;;;;;;;;;4989962;28;20314;-64
2023/09/12 07:10:17;;;;;;;22.02;6.63;;;;;;;;;;4985458;28;20237;-63
2023/09/12 07:12:45;;;;;;;8.23;5.55;;;;;;;;;;4984677;28;20213;-64
2023/09/12 07:15:12;;;;;;;15.00;6.30;;;;;;;;;;4984117;28;20201;-63
2023/09/12 07:17:39;;;;;;;12.05;6.53;;;;;;;;;;4987753;28;20279;-63
2023/09/12 07:20:11;;;;;;;10.95;5.57;;;;;;;;;;4987961;28;20213;-64
2023/09/12 07:22:38;;;;;;;7.65;5.88;;;;;;;;;;4989612;28;20746;-65
2023/09/12 07:25:05;;;;;;;10.38;5.65;;;;;;;;;;4990007;28;20210;-64
2023/09/12 07:27:32;;;;;;;12.43;5.70;;;;;;;;;;4989691;28;20206;-64
2023/09/12 07:30:01;;;;;;;8.90;5.78;;;;;;;;;;4989321;28;20229;-67
2023/09/12 07:32:29;;;;;;;15.48;5.95;;;;;;;;;;4987152;28;20232;-66
2023/09/12 07:34:56;;;;;;;10.48;5.95;;;;;;;;;;4986934;28;20590;-66
2023/09/12 07:37:23;;;;;;;11.20;5.70;;;;;;;;;;4984160;28;20198;-66
2023/09/12 07:39:50;;;;;;;15.57;6.00;;;;;;;;;;4984051;28;20202;-67
2023/09/12 07:42:17;;;;;;;7.57;5.93;;;;;;;;;;4982427;28;20205;-65
2023/09/12 07:44:44;;;;;;;13.25;5.95;;;;;;;;;;4974923;28;20210;-66
2023/09/12 07:47:12;;;;;;;8.70;5.93;;;;;;;;;;4983758;28;20217;-66
2023/09/12 07:49:39;;;;;;;12.82;5.72;;;;;;;;;;4974412;28;20316;-65
2023/09/12 07:52:07;;;;;;;10.20;5.53;;;;;;;;;;4986913;28;20213;-61
2023/09/12 07:54:34;;;;;;;10.40;5.80;;;;;;;;;;4978652;28;20217;-66
2023/09/12 07:57:01;;;;;;;8.50;5.55;;;;;;;;;;4983809;28;20217;-65
2023/09/12 07:59:28;;;;;;;9.77;5.47;;;;;;;;;;4982035;28;20194;-67
2023/09/12 08:01:55;;;;;;;8.40;6.18;;;;;;;;;;4971067;28;20710;-66
2023/09/12 08:04:24;;;;;;;14.07;6.43;;;;;;;;;;4982295;28;20210;-65
2023/09/12 08:06:51;;;;;;;8.85;5.20;;;;;;;;;;4981882;28;20232;-64
2023/09/12 08:09:18;;;;;;;6.13;5.63;;;;;;;;;;4982258;28;20241;-65
2023/09/12 08:11:45;;;;;;;11.55;5.97;;;;;;;;;;4978551;28;20684;-63
2023/09/12 08:14:12;;;;;;;8.98;5.70;;;;;;;;;;4986662;28;20218;-65
2023/09/12 08:16:39;;;;;;;7.47;5.70;;;;;;;;;;4988294;28;20217;-64
2023/09/12 08:19:06;;;;;;;8.73;5.75;;;;;;;;;;4987068;28;20213;-64
2023/09/12 08:21:34;;;;;;;11.63;5.68;;;;;;;;;;4989245;28;20321;-64
2023/09/12 08:24:01;;;;;;;11.32;6.10;;;;;;;;;;4987235;28;20214;-64
2023/09/12 08:26:28;;;;;;;7.35;5.38;;;;;;;;;;4983200;28;20199;-64
2023/09/12 08:28:56;;;;;;;12.70;6.85;;;;;;;;;;4981763;28;20340;-64
2023/09/12 08:31:23;;;;;;;10.32;5.90;;;;;;;;;;4983066;28;20708;-61
2023/09/12 08:33:50;;;;;;;11.95;5.72;;;;;;;;;;4981774;28;20223;-71
2023/09/12 08:36:20;;;;;;;9.38;5.70;;;;;;;;;;4982214;28;20224;-68
2023/09/12 08:38:48;;;;;;;11.95;6.53;;;;;;;;;;4984370;28;20209;-67
2023/09/12 08:41:15;;;;;;;13.63;6.40;;;;;;;;;;4987558;28;20217;-66
2023/09/12 08:43:42;;;;;;;11.88;6.25;;;;;;;;;;4986909;28;20202;-66
2023/09/12 08:46:10;;;;;;;8.68;6.03;;;;;;;;;;4973944;28;20213;-65
2023/09/12 08:48:37;;;;;;;8.77;6.22;;;;;;;;;;4976473;28;20297;-66
2023/09/12 08:51:07;;;;;;;8.90;6.05;;;;;;;;;;4979282;28;20229;-66
2023/09/12 08:53:34;;;;;;;11.05;6.15;;;;;;;;;;4971761;28;20261;-63
2023/09/12 08:56:04;;;;;;;16.30;6.15;;;;;;;;;;4972296;28;20301;-64
2023/09/12 08:58:32;;;;;;;14.10;5.85;;;;;;;;;;4976829;28;20283;-64
2023/09/12 09:00:59;;;;;;;13.05;6.15;;;;;;;;;;4971561;28;20541;-65
2023/09/12 09:03:27;;;;;;;14.07;6.07;;;;;;;;;;4966518;28;20962;-63
2023/09/12 09:05:56;;;;;;;13.23;6.15;;;;;;;;;;4972731;28;20209;-64
2023/09/12 09:08:23;;;;;;;13.68;5.55;;;;;;;;;;4983721;28;20691;-66
2023/09/12 09:10:57;;;;;;;7.57;6.05;;;;;;;;;;4985478;28;20815;-66
2023/09/12 09:13:25;;;;;;;12.57;6.03;;;;;;;;;;4981383;28;20210;-65
2023/09/12 09:16:10;;;;;;;9.63;6.18;;;;;;;;;;4981936;28;20233;-64
2023/09/12 09:18:51;;;;;;;11.90;5.95;;;;;;;;;;4982227;28;20257;-67
2023/09/12 09:21:19;;;;;;;14.75;6.40;;;;;;;;;;4978166;28;20213;-66
2023/09/12 09:23:46;;;;;;;11.82;5.53;;;;;;;;;;4986054;28;20244;-67
2023/09/12 09:26:13;;;;;;;14.50;6.43;;;;;;;;;;4982827;28;20860;-67
2023/09/12 09:28:42;;;;;;;9.70;5.78;;;;;;;;;;4979025;28;20206;-67
2023/09/12 09:31:11;;;;;;;15.23;6.35;;;;;;;;;;4972886;28;20796;-67
2023/09/12 09:33:39;;;;;;;12.00;6.18;;;;;;;;;;4985407;28;20212;-67
2023/09/12 09:36:07;;;;;;;8.75;6.05;;;;;;;;;;4977769;28;20215;-67
2023/09/12 09:38:35;;;;;;;14.25;6.40;;;;;;;;;;4981558;28;20209;-67
2023/09/12 09:41:05;;;;;;;14.55;6.85;;;;;;;;;;4979556;28;20260;-68
2023/09/12 09:43:33;;;;;;;10.02;6.55;;;;;;;;;;4971032;28;20214;-68
2023/09/12 09:46:01;;;;;;;16.88;7.90;;;;;;;;;;4979879;28;20218;-68
2023/09/12 09:48:28;;;;;;;11.93;6.13;;;;;;;;;;4972083;28;20393;-68
2023/09/12 09:51:01;;;;;;;12.15;5.93;;;;;;;;;;4978764;28;20230;-68
2023/09/12 09:53:28;;;;;;;12.70;5.90;;;;;;;;;;4982443;28;20213;-68
2023/09/12 09:56:23;;;;;;;11.02;6.30;;;;;;;;;;4982970;28;20216;-68
2023/09/12 09:58:50;;;;;;;14.32;6.55;;;;;;;;;;4978459;28;20216;-68
2023/09/12 10:01:21;;;;;;;7.88;5.82;;;;;;;;;;4984435;28;20205;-68
2023/09/12 10:03:48;;;;;;;11.25;6.63;;;;;;;;;;4974870;28;20206;-68
2023/09/12 10:06:16;;;;;;;13.77;6.78;;;;;;;;;;4966989;28;20677;-68
2023/09/12 10:08:51;;;;;;;10.73;6.03;;;;;;;;;;4982979;28;20629;-68
2023/09/12 10:11:19;;;;;;;13.80;7.30;;;;;;;;;;4983622;28;20240;-69
2023/09/12 10:13:48;;;;;;;6.43;5.85;;;;;;;;;;4985365;28;20213;-69
2023/09/12 10:16:17;;;;;;;8.50;6.18;;;;;;;;;;4982519;28;20247;-69
2023/09/12 10:18:47;;;;;;;9.73;6.47;;;;;;;;;;4980706;28;20220;-68
2023/09/12 10:21:18;;;;;;;13.15;6.07;;;;;;;;;;4982379;28;20205;-69
2023/09/12 10:23:47;;;;;;;7.75;6.28;;;;;;;;;;4980027;28;20228;-69
2023/09/12 10:26:15;;;;;;;16.10;5.97;;;;;;;;;;4979360;28;20213;-67
2023/09/12 10:28:42;;;;;;;11.98;6.72;;;;;;;;;;4979212;28;20245;-68
2023/09/12 10:31:10;;;;;;;11.05;6.65;;;;;;;;;;4974284;28;20715;-70
2023/09/12 10:33:37;;;;;;;12.80;6.22;;;;;;;;;;4983486;28;20213;-77
2023/09/12 10:36:06;;;;;;;11.18;5.90;;;;;;;;;;4982935;28;20312;-75
2023/09/12 10:38:34;;;;;;;12.95;6.38;;;;;;;;;;4984462;28;20242;-74
2023/09/12 10:41:03;;;;;;;17.98;6.50;;;;;;;;;;4982983;28;20212;-75
2023/09/12 10:43:30;;;;;;;9.10;6.28;;;;;;;;;;4963861;28;20685;-75
2023/09/12 10:45:59;;;;;;;12.07;6.78;;;;;;;;;;4964582;28;20214;-65
2023/09/12 10:48:26;;;;;;;13.80;6.72;;;;;;;;;;4978934;28;20609;-69
2023/09/12 10:50:53;;;;;;;10.27;6.07;;;;;;;;;;4977700;28;20233;-71
2023/09/12 10:53:25;;;;;;;15.20;6.10;;;;;;;;;;4969953;28;20244;-62
2023/09/12 10:56:00;;;;;;;12.88;7.28;;;;;;;;;;4976058;28;20797;-69
2023/09/12 10:58:27;;;;;;;8.93;6.40;;;;;;;;;;4973390;28;20202;-69
2023/09/12 11:01:12;;;;;;;10.00;6.07;;;;;;;;;;4977528;28;20272;-70
2023/09/12 11:03:40;;;;;;;15.38;6.68;;;;;;;;;;4983495;28;20201;-72
2023/09/12 11:06:21;;;;;;;19.45;6.43;;;;;;;;;;4981222;28;20586;-67
2023/09/12 11:09:11;;;;;;;12.63;6.32;;;;;;;;;;4982951;28;20770;-68
2023/09/12 11:11:41;;;;;;;11.52;6.93;;;;;;;;;;4975787;28;20253;-73
2023/09/12 11:14:08;;;;;;;9.02;6.45;;;;;;;;;;4968284;28;20676;-73
2023/09/12 11:16:36;;;;;;;15.02;7.18;;;;;;;;;;4977279;28;20217;-74
2023/09/12 11:19:15;;;;;;;8.45;7.13;;;;;;;;;;4981735;28;21000;-74
2023/09/12 11:21:42;;;;;;;8.25;6.45;;;;;;;;;;4976194;28;20471;-69
2023/09/12 11:24:09;;;;;;;14.45;6.90;;;;;;;;;;4979725;28;20218;-70
2023/09/12 11:26:36;;;;;;;12.15;7.13;;;;;;;;;;4970634;28;20216;-69
2023/09/12 11:29:14;;;;;;;11.90;6.85;;;;;;;;;;4982593;28;20241;-69
2023/09/12 11:31:42;;;;;;;12.13;6.90;;;;;;;;;;4983689;28;20229;-71
2023/09/12 11:34:10;;;;;;;16.90;7.55;;;;;;;;;;4983305;28;20257;-65
2023/09/12 11:36:40;;;;;;;7.35;6.60;;;;;;;;;;4985162;28;20651;-70
2023/09/12 11:39:23;;;;;;;10.02;6.72;;;;;;;;;;4979747;28;20209;-71
2023/09/12 11:41:51;;;;;;;17.95;6.80;;;;;;;;;;4983330;28;20319;-69
2023/09/12 11:44:19;;;;;;;14.13;7.50;;;;;;;;;;4983409;28;20213;-69
2023/09/12 11:46:48;;;;;;;8.77;6.30;;;;;;;;;;4979163;28;20203;-70
2023/09/12 11:49:15;;;;;;;11.45;7.05;;;;;;;;;;4974262;28;20206;-68
2023/09/12 11:51:48;;;;;;;15.77;8.48;;;;;;;;;;4982795;28;20230;-68
2023/09/12 11:54:15;;;;;;;13.38;7.90;;;;;;;;;;4979631;28;20263;-70
2023/09/12 11:56:43;;;;;;;9.90;7.35;;;;;;;;;;4987733;28;20210;-69
2023/09/12 11:59:10;;;;;;;11.48;6.93;;;;;;;;;;4979402;28;20657;-72
2023/09/12 12:01:38;;;;;;;7.03;6.32;;;;;;;;;;4983842;28;20209;-69
2023/09/12 12:04:06;;;;;;;10.85;7.05;;;;;;;;;;4985773;28;20222;-70
2023/09/12 12:06:35;;;;;;;13.90;7.82;;;;;;;;;;4979154;28;20213;-70
2023/09/12 12:09:04;;;;;;;10.40;7.45;;;;;;;;;;4984750;28;20255;-69
2023/09/12 12:11:31;;;;;;;14.93;7.25;;;;;;;;;;4972265;28;20237;-71
2023/09/12 12:13:58;;;;;;;12.15;6.53;;;;;;;;;;4981257;28;20212;-70
2023/09/12 12:16:26;;;;;;;10.98;6.80;;;;;;;;;;4984451;28;20217;-69
2023/09/12 12:18:57;;;;;;;8.95;6.72;;;;;;;;;;4985539;28;20208;-71
2023/09/12 12:21:24;;;;;;;10.13;6.97;;;;;;;;;;4969982;28;20211;-71
2023/09/12 12:23:59;;;;;;;11.10;7.22;;;;;;;;;;4987065;28;20237;-70
2023/09/12 12:26:26;;;;;;;13.73;6.60;;;;;;;;;;4986176;28;20827;-71
2023/09/12 12:28:53;;;;;;;10.13;6.75;;;;;;;;;;4981413;28;20216;-72
2023/09/12 12:31:21;;;;;;;14.65;7.00;;;;;;;;;;4982894;28;20343;-72
2023/09/12 12:33:52;;;;;;;14.75;7.80;;;;;;;;;;4985585;28;20209;-71
2023/09/12 12:36:20;;;;;;;15.00;6.90;;;;;;;;;;4982404;28;20295;-72
2023/09/12 12:38:48;;;;;;;12.18;6.78;;;;;;;;;;4973022;28;20207;-72
2023/09/12 12:41:15;;;;;;;12.23;7.13;;;;;;;;;;4986108;28;20202;-72
2023/09/12 12:43:43;;;;;;;9.48;6.78;;;;;;;;;;4987551;28;20213;-72
2023/09/12 12:46:12;;;;;;;12.18;6.63;;;;;;;;;;4985993;28;20213;-72
2023/09/12 12:48:43;;;;;;;10.63;6.43;;;;;;;;;;4981046;28;20217;-74
2023/09/12 12:51:17;;;;;;;11.25;6.78;;;;;;;;;;4982153;28;20631;-73
2023/09/12 12:53:46;;;;;;;14.73;6.60;;;;;;;;;;4983656;28;20648;-72
2023/09/12 12:56:15;;;;;;;11.52;6.88;;;;;;;;;;4985876;28;20213;-72
2023/09/12 12:58:46;;;;;;;11.45;6.47;;;;;;;;;;4982162;28;20805;-72
2023/09/12 13:01:13;;;;;;;8.27;6.68;;;;;;;;;;4985586;28;20864;-67
2023/09/12 13:03:41;;;;;;;8.65;6.40;;;;;;;;;;4987269;28;20214;-72
2023/09/12 13:06:13;;;;;;;9.15;6.93;;;;;;;;;;4985437;28;20220;-71
2023/09/12 13:08:40;;;;;;;9.00;6.40;;;;;;;;;;4980751;28;20237;-70
2023/09/12 13:11:09;;;;;;;8.95;6.43;;;;;;;;;;4981842;28;20202;-71
2023/09/12 13:13:36;;;;;;;13.45;6.93;;;;;;;;;;4983573;28;20209;-71
2023/09/12 13:16:04;;;;;;;8.98;6.57;;;;;;;;;;4967879;28;20924;-71
2023/09/12 13:18:32;;;;;;;14.77;6.72;;;;;;;;;;4974804;28;20687;-71
2023/09/12 13:20:59;;;;;;;9.80;6.88;;;;;;;;;;4985815;28;20225;-71
2023/09/12 13:23:26;;;;;;;7.78;6.45;;;;;;;;;;4981823;28;20217;-71
2023/09/12 13:25:53;;;;;;;9.35;6.50;;;;;;;;;;4984976;28;20706;-66
2023/09/12 13:28:23;;;;;;;7.30;6.32;;;;;;;;;;4984866;28;20244;-67
2023/09/12 13:30:50;;;;;;;9.38;6.65;;;;;;;;;;4983402;28;20224;-72
2023/09/12 13:33:17;;;;;;;8.07;6.50;;;;;;;;;;4981757;28;20668;-72
2023/09/12 13:35:45;;;;;;;11.85;6.80;;;;;;;;;;4984858;28;20220;-72
2023/09/12 13:38:12;;;;;;;11.10;6.40;;;;;;;;;;4984895;28;20218;-72
2023/09/12 13:40:39;;;;;;;9.73;6.15;;;;;;;;;;4986277;28;20202;-72
2023/09/12 13:43:07;;;;;;;10.27;6.57;;;;;;;;;;4983696;28;20216;-72
2023/09/12 13:45:35;;;;;;;12.57;6.35;;;;;;;;;;4985667;28;20210;-70
2023/09/12 13:48:04;;;;;;;13.93;6.45;;;;;;;;;;4986593;28;20205;-72
2023/09/12 13:50:31;;;;;;;10.85;6.47;;;;;;;;;;4982462;28;20205;-68
2023/09/12 13:52:59;;;;;;;11.82;6.60;;;;;;;;;;4980801;28;20317;-72
2023/09/12 13:55:26;;;;;;;8.52;6.38;;;;;;;;;;4984252;28;20209;-72
2023/09/12 13:57:53;;;;;;;9.27;6.28;;;;;;;;;;4985851;28;20209;-69
2023/09/12 14:00:20;;;;;;;7.25;6.43;;;;;;;;;;4984394;28;20213;-70
2023/09/12 14:02:48;;;;;;;10.88;6.47;;;;;;;;;;4985801;28;20197;-64
2023/09/12 14:05:15;;;;;;;10.65;6.15;;;;;;;;;;4982937;28;20213;-68
2023/09/12 14:07:43;;;;;;;12.60;6.72;;;;;;;;;;4986248;28;20232;-70
2023/09/12 14:10:10;;;;;;;9.05;6.60;;;;;;;;;;4984097;28;20241;-71
2023/09/12 14:12:37;;;;;;;7.05;6.35;;;;;;;;;;4978426;28;20228;-67
2023/09/12 14:15:06;;;;;;;11.85;6.35;;;;;;;;;;4982448;28;20789;-72
2023/09/12 14:17:33;;;;;;;11.68;6.45;;;;;;;;;;4986222;28;20216;-72
2023/09/12 14:20:02;;;;;;;9.25;6.38;;;;;;;;;;4984207;28;20218;-66
2023/09/12 14:22:29;;;;;;;12.80;7.45;;;;;;;;;;4981196;28;20464;-67
2023/09/12 14:24:56;;;;;;;12.07;6.80;;;;;;;;;;4985131;28;21017;-67
2023/09/12 14:27:23;;;;;;;12.73;6.70;;;;;;;;;;4983901;28;20213;-69
2023/09/12 14:29:50;;;;;;;10.52;6.72;;;;;;;;;;4985925;28;20292;-68
2023/09/12 14:32:17;;;;;;;8.93;6.03;;;;;;;;;;4982222;28;20233;-67
2023/09/12 14:34:45;;;;;;;7.97;6.30;;;;;;;;;;4979765;28;20209;-68
2023/09/12 14:37:13;;;;;;;11.13;6.13;;;;;;;;;;4979070;28;20219;-67
2023/09/12 14:39:40;;;;;;;15.75;6.32;;;;;;;;;;4978475;28;20201;-67